Hauptseite
METAR-TAF:

METAR-TAF

Flughäfen :

Kuwait-Stadt, Kuwait

Flughafen Kuwait

Breite: 29-13N, Länge: 047-59E, Höhe: 55 m

Beobachtung

Neuester Wetterbericht von vor 8 Minuten, um 12:00 UTC
Wind 23 kt aus Nord
Temperatur 43°C
Luftfeuchtigkeit 12%
Luftdruck 1002 hPa
Sichtweite: 6000 m
Himmel klar
(schwach) , verbreitet Staub

METAR: OKBK 221200Z 35023KT 6000 -BLDU SKC 43/08 Q1002 NOSIG

Zeit: 15:08 (12:08 UTC)

Prognose

Neuester Wetterbericht von vor 1 Stunde und 23 Minuten, um 10:45 UTC
Gültige Prognose vom 22 um 12 UTC bis 23 um 18 UTC
Wind 15 kt aus Nord/Nordwest, Böen bis zu 30 kt
Sichtweite: 7000 m
Himmel klar
Zeitweise
vom 22 um 12 UTC bis 22 um 18 UTC
Sichtweite: 2000 m
Staubtreiben

TAF: OKBK 221045Z 2212/2318 34015G30KT 7000 SKC TEMPO 2212/2218 2000 BLDU

Wetterbeobachtungen und Prognosen von mehr als 4000 Flughäfen (METAR und TAF Bericht).

Die verfügbaren Stationen werden durch gelbe und rote Markierungen auf der Karte dargestellt.

Führen Sie die Maus auf sie, um den Namen der Station zu sehen.

Darauf klicken, um die Beobachtung von Wetterbeobachtungen und Prognosen zu sehen.

Um die Karte zu ändern : klicken Sie auf den grünen Tasten mit einem schwarzen Kreuz Zum Vergrößern, auf den grünen Button mit einem Gedankenstrich zu verkleinern, oder auf die grünen Pfeile für benachbarte Karten.


METAR-TAF: